Time;durP1;ratioP1;P1;durP2;ratioP2;P2;SDS_P1;SDS_P2;PMS_P1;PMS_P2;Temp;Humidity;BMP_temperature;BMP_pressure;BME280_temperature;BME280_humidity;BME280_pressure;Samples;Min_cycle;Max_cycle;Signal;HPM_P1;HPM_P2
2021/11/05 00:00:38;;;;;;;26.10;17.10;;;9.20;99.90;;;;;;5022136;28;20682;-72
2021/11/05 00:03:04;;;;;;;25.87;17.43;;;9.20;99.90;;;;;;5023017;28;20710;-72
2021/11/05 00:05:31;;;;;;;23.13;17.40;;;9.20;99.90;;;;;;5023110;28;20639;-72
2021/11/05 00:08:02;;;;;;;24.30;16.60;;;9.10;99.90;;;;;;5025789;28;20199;-71
2021/11/05 00:10:32;;;;;;;24.00;16.80;;;9.10;99.90;;;;;;5021743;28;20646;-71
2021/11/05 00:12:58;;;;;;;24.93;18.50;;;9.10;99.90;;;;;;5023966;28;20699;-72
2021/11/05 00:15:24;;;;;;;25.50;16.63;;;9.10;99.90;;;;;;5023353;28;20627;-71
2021/11/05 00:17:49;;;;;;;23.77;16.73;;;9.10;99.90;;;;;;5021564;28;20196;-71
2021/11/05 00:20:18;;;;;;;25.80;17.47;;;9.10;99.90;;;;;;5023127;28;20232;-71
2021/11/05 00:22:45;;;;;;;23.53;16.10;;;9.10;99.90;;;;;;5023897;28;20291;-71
2021/11/05 00:25:13;;;;;;;23.20;15.63;;;9.10;99.90;;;;;;5025147;28;20631;-73
2021/11/05 00:27:40;;;;;;;26.57;18.00;;;9.10;99.90;;;;;;5024578;28;20600;-70
2021/11/05 00:30:10;;;;;;;22.27;16.43;;;9.30;99.90;;;;;;5020610;28;20708;-72
2021/11/05 00:32:36;;;;;;;25.07;16.23;;;9.10;99.90;;;;;;5024871;28;21247;-73
2021/11/05 00:35:04;;;;;;;24.97;16.07;;;9.10;99.90;;;;;;5023063;28;20703;-72
2021/11/05 00:37:32;;;;;;;24.60;16.90;;;9.10;99.90;;;;;;5023619;28;20615;-72
2021/11/05 00:40:05;;;;;;;23.53;16.53;;;9.10;99.90;;;;;;5019654;28;20749;-71
2021/11/05 00:42:33;;;;;;;23.00;16.37;;;9.10;99.90;;;;;;5014900;28;20731;-70
2021/11/05 00:45:05;;;;;;;23.60;15.93;;;9.10;99.90;;;;;;5020617;28;20679;-70
2021/11/05 00:47:31;;;;;;;21.30;15.37;;;9.00;99.90;;;;;;5019589;28;20650;-70
2021/11/05 00:49:58;;;;;;;23.27;15.97;;;9.00;99.90;;;;;;5018849;28;20678;-72
2021/11/05 00:52:24;;;;;;;24.50;15.80;;;9.00;99.90;;;;;;5022993;28;20200;-72
2021/11/05 00:54:52;;;;;;;22.00;14.97;;;9.10;99.90;;;;;;5021599;28;20615;-71
2021/11/05 00:57:17;;;;;;;25.40;17.30;;;9.10;99.90;;;;;;5020394;28;20197;-71
2021/11/05 00:59:45;;;;;;;22.33;15.13;;;9.10;99.90;;;;;;5022990;28;20652;-71
2021/11/05 01:02:14;;;;;;;22.53;15.63;;;9.00;99.90;;;;;;5020023;28;20362;-73
2021/11/05 01:04:43;;;;;;;21.90;15.17;;;9.00;99.90;;;;;;5020244;28;20872;-72
2021/11/05 01:07:09;;;;;;;24.30;15.40;;;8.90;99.90;;;;;;5019071;28;20627;-74
2021/11/05 01:09:34;;;;;;;23.37;15.80;;;8.90;99.90;;;;;;5019250;28;20627;-72
2021/11/05 01:12:02;;;;;;;20.97;15.50;;;8.90;99.90;;;;;;5021006;28;20322;-71
2021/11/05 01:14:30;;;;;;;21.13;15.37;;;9.00;99.90;;;;;;5021600;28;20225;-71
2021/11/05 01:16:58;;;;;;;21.47;14.20;;;9.00;99.90;;;;;;5020249;28;20603;-71
2021/11/05 01:19:27;;;;;;;23.67;15.90;;;9.20;99.90;;;;;;5020858;28;20666;-73
2021/11/05 01:21:58;;;;;;;24.87;16.20;;;9.00;99.90;;;;;;5021765;28;20638;-72
2021/11/05 01:24:24;;;;;;;22.70;15.90;;;9.00;99.90;;;;;;5020985;28;21187;-71
2021/11/05 01:26:50;;;;;;;23.67;15.70;;;9.00;99.90;;;;;;5022530;28;20664;-71
2021/11/05 01:29:15;;;;;;;22.40;15.83;;;9.00;99.90;;;;;;5022370;28;20275;-73
2021/11/05 01:31:44;;;;;;;23.60;14.93;;;9.00;99.90;;;;;;5022544;28;20603;-71
2021/11/05 01:34:12;;;;;;;24.10;15.00;;;8.90;99.90;;;;;;5021669;28;20238;-71
2021/11/05 01:36:38;;;;;;;27.33;16.40;;;8.90;99.90;;;;;;5002730;28;21175;-71
2021/11/05 01:39:24;;;;;;;20.37;13.47;;;8.90;99.90;;;;;;5019913;28;20678;-70
2021/11/05 01:41:54;;;;;;;24.37;15.17;;;8.90;99.90;;;;;;5018230;28;20231;-73
2021/11/05 01:44:24;;;;;;;23.43;14.90;;;8.90;99.90;;;;;;5023121;28;20649;-72
2021/11/05 01:46:53;;;;;;;22.17;15.33;;;8.90;99.90;;;;;;5022291;28;21146;-72
2021/11/05 01:49:21;;;;;;;21.47;13.83;;;8.90;99.90;;;;;;5017741;28;20671;-72
2021/11/05 01:51:51;;;;;;;19.73;14.60;;;8.90;99.90;;;;;;5020108;28;20996;-72
2021/11/05 01:54:19;;;;;;;22.37;15.10;;;8.90;99.90;;;;;;5022922;28;20747;-74
2021/11/05 01:56:51;;;;;;;22.67;14.90;;;8.90;99.90;;;;;;5023679;28;21440;-73
2021/11/05 01:59:38;;;;;;;21.17;14.73;;;8.90;99.90;;;;;;5022107;28;20616;-72
2021/11/05 02:02:08;;;;;;;22.93;14.87;;;8.90;99.90;;;;;;5022076;28;20631;-73
2021/11/05 02:04:36;;;;;;;21.17;14.63;;;8.90;99.90;;;;;;5022350;28;21213;-72
2021/11/05 02:07:04;;;;;;;23.80;14.63;;;8.90;99.90;;;;;;5022576;28;20707;-73
2021/11/05 02:09:34;;;;;;;23.37;15.60;;;8.90;99.90;;;;;;5020692;28;20620;-73
2021/11/05 02:12:07;;;;;;;19.37;14.17;;;8.80;99.90;;;;;;5022241;28;20663;-72
2021/11/05 02:14:33;;;;;;;19.33;14.27;;;8.90;99.90;;;;;;5003553;28;20724;-72
2021/11/05 02:17:05;;;;;;;21.13;14.63;;;8.90;99.90;;;;;;5020593;28;20667;-73
2021/11/05 02:19:38;;;;;;;24.33;15.60;;;8.90;99.90;;;;;;5020688;28;20205;-73
2021/11/05 02:22:07;;;;;;;22.30;14.70;;;8.90;99.90;;;;;;5019313;28;20722;-72
2021/11/05 02:24:33;;;;;;;20.47;14.47;;;8.80;99.90;;;;;;5021243;28;20661;-71
2021/11/05 02:27:02;;;;;;;26.70;14.70;;;8.90;99.90;;;;;;5022325;28;21130;-70
2021/11/05 02:29:31;;;;;;;23.53;14.40;;;8.80;99.90;;;;;;5021740;28;20615;-71
2021/11/05 02:31:58;;;;;;;24.70;15.13;;;8.80;99.90;;;;;;5021533;28;20688;-71
2021/11/05 02:34:33;;;;;;;24.47;15.03;;;8.80;99.90;;;;;;5018542;28;20631;-73
2021/11/05 02:37:02;;;;;;;23.50;15.50;;;8.80;99.90;;;;;;5017438;28;20682;-71
2021/11/05 02:39:36;;;;;;;22.00;14.67;;;8.80;99.90;;;;;;5019510;28;20724;-70
2021/11/05 02:42:09;;;;;;;22.20;14.73;;;8.80;99.90;;;;;;5018650;28;20649;-74
2021/11/05 02:44:37;;;;;;;20.87;15.07;;;8.80;99.90;;;;;;5019374;28;20701;-71
2021/11/05 02:47:25;;;;;;;22.00;15.00;;;8.80;99.90;;;;;;5018952;28;21200;-70
2021/11/05 02:50:00;;;;;;;24.83;16.17;;;8.80;99.90;;;;;;5015260;28;20712;-73
2021/11/05 02:52:26;;;;;;;20.13;14.50;;;8.80;99.90;;;;;;5018024;28;20805;-71
2021/11/05 02:54:54;;;;;;;23.53;15.67;;;8.80;99.90;;;;;;5020641;28;20671;-71
2021/11/05 02:57:22;;;;;;;24.47;15.07;;;8.80;99.90;;;;;;5020265;28;20610;-72
2021/11/05 02:59:52;;;;;;;21.67;13.77;;;8.80;99.90;;;;;;5017942;28;21258;-71
2021/11/05 03:02:22;;;;;;;20.53;14.00;;;8.80;99.90;;;;;;5019409;28;20626;-72
2021/11/05 03:04:52;;;;;;;25.30;15.40;;;8.80;99.90;;;;;;5019709;28;20587;-72
2021/11/05 03:07:20;;;;;;;20.80;14.20;;;8.80;99.90;;;;;;5019726;28;21026;-72
2021/11/05 03:09:50;;;;;;;22.87;14.90;;;8.80;99.90;;;;;;5020278;28;20645;-72
2021/11/05 03:12:23;;;;;;;22.53;14.67;;;8.80;99.90;;;;;;5019414;28;20641;-73
2021/11/05 03:14:51;;;;;;;21.63;14.50;;;8.80;99.90;;;;;;5020895;28;20586;-72
2021/11/05 03:17:22;;;;;;;22.30;14.80;;;8.80;99.90;;;;;;5018054;28;20611;-72
2021/11/05 03:19:51;;;;;;;19.20;13.47;;;8.70;99.90;;;;;;5018680;28;21178;-73
2021/11/05 03:22:16;;;;;;;21.30;13.90;;;8.70;99.90;;;;;;5019474;28;20636;-71
2021/11/05 03:24:52;;;;;;;22.93;14.03;;;8.70;99.90;;;;;;5020078;28;20599;-71
2021/11/05 03:27:20;;;;;;;20.77;13.83;;;8.70;99.90;;;;;;5020432;28;20200;-71
2021/11/05 03:29:46;;;;;;;21.13;14.80;;;8.60;99.90;;;;;;5021954;28;20690;-73
2021/11/05 03:32:19;;;;;;;21.00;13.20;;;8.70;99.90;;;;;;5017733;28;20742;-71
2021/11/05 03:34:47;;;;;;;22.97;13.03;;;8.70;99.90;;;;;;5021524;28;20590;-72
2021/11/05 03:37:15;;;;;;;21.93;13.53;;;8.70;99.90;;;;;;5022592;28;20607;-70
2021/11/05 03:39:40;;;;;;;19.53;13.37;;;8.70;99.90;;;;;;5023452;28;20643;-70
2021/11/05 03:42:08;;;;;;;20.80;13.03;;;8.70;99.90;;;;;;5021225;28;21228;-72
2021/11/05 03:44:34;;;;;;;19.10;12.97;;;8.80;99.90;;;;;;5022982;28;20267;-73
2021/11/05 03:47:02;;;;;;;21.40;12.57;;;8.80;99.90;;;;;;5022620;28;21179;-72
2021/11/05 03:49:29;;;;;;;21.00;12.87;;;8.80;99.90;;;;;;5022616;28;20255;-74
2021/11/05 03:51:58;;;;;;;22.07;12.27;;;8.80;99.90;;;;;;5019577;28;20655;-72
2021/11/05 03:54:24;;;;;;;20.37;13.23;;;8.80;99.90;;;;;;5019879;28;20651;-71
2021/11/05 03:56:59;;;;;;;19.20;12.83;;;8.80;99.90;;;;;;5021292;28;21037;-74
2021/11/05 03:59:25;;;;;;;20.87;13.80;;;8.90;99.90;;;;;;5022733;28;20638;-71
2021/11/05 04:01:50;;;;;;;19.40;13.07;;;8.80;99.90;;;;;;5003957;28;20646;-73
2021/11/05 04:04:19;;;;;;;21.77;13.47;;;8.80;99.90;;;;;;5022429;28;20203;-72
2021/11/05 04:06:48;;;;;;;21.23;12.60;;;8.80;99.90;;;;;;5023287;28;20562;-71
2021/11/05 04:09:16;;;;;;;18.97;13.00;;;8.80;99.90;;;;;;5021390;28;20626;-72
2021/11/05 04:11:44;;;;;;;18.63;12.23;;;8.80;99.90;;;;;;5023886;28;20976;-71
2021/11/05 04:14:13;;;;;;;19.00;13.63;;;8.80;99.90;;;;;;5024537;28;20661;-71
2021/11/05 04:16:38;;;;;;;19.03;12.60;;;8.80;99.90;;;;;;5022534;28;20614;-74
2021/11/05 04:19:04;;;;;;;19.23;12.73;;;8.80;99.90;;;;;;5024506;28;21071;-70
2021/11/05 04:21:30;;;;;;;23.67;14.27;;;8.80;99.90;;;;;;5006344;28;20255;-71
2021/11/05 04:24:01;;;;;;;20.00;13.53;;;8.80;99.90;;;;;;5006340;28;20205;-71
2021/11/05 04:26:28;;;;;;;19.27;12.07;;;8.70;99.90;;;;;;5024580;28;20177;-72
2021/11/05 04:28:54;;;;;;;20.40;12.97;;;8.80;99.90;;;;;;5021860;28;20713;-72
2021/11/05 04:31:22;;;;;;;18.70;12.83;;;8.70;99.90;;;;;;5023792;28;20643;-72
2021/11/05 04:33:51;;;;;;;18.43;13.33;;;8.70;99.90;;;;;;5024631;28;20706;-72
2021/11/05 04:36:21;;;;;;;18.37;12.43;;;8.70;99.90;;;;;;5024496;28;20655;-71
2021/11/05 04:38:50;;;;;;;18.20;12.50;;;8.70;99.90;;;;;;5023358;28;21154;-72
2021/11/05 04:41:15;;;;;;;19.90;13.00;;;8.70;99.90;;;;;;5018236;28;20668;-71
2021/11/05 04:43:41;;;;;;;17.50;12.20;;;8.80;99.90;;;;;;5011468;28;20673;-72
2021/11/05 04:46:07;;;;;;;19.97;12.50;;;8.80;99.90;;;;;;5023181;28;20197;-73
2021/11/05 04:48:35;;;;;;;18.27;12.33;;;8.80;99.90;;;;;;5023322;28;20272;-71
2021/11/05 04:51:03;;;;;;;19.20;14.57;;;8.80;99.90;;;;;;5018734;28;20662;-72
2021/11/05 04:53:29;;;;;;;23.10;13.50;;;8.80;99.90;;;;;;5023582;28;20639;-71
2021/11/05 04:55:57;;;;;;;20.87;13.10;;;8.80;99.90;;;;;;5020637;28;20662;-71
2021/11/05 04:58:25;;;;;;;18.47;12.83;;;8.80;99.90;;;;;;5023615;28;20618;-71
2021/11/05 05:00:53;;;;;;;18.50;12.60;;;8.80;99.90;;;;;;5020027;28;20631;-73
2021/11/05 05:03:21;;;;;;;17.63;11.97;;;8.80;99.90;;;;;;5023963;28;20701;-71
2021/11/05 05:05:49;;;;;;;18.60;12.70;;;8.80;99.90;;;;;;5022550;28;20763;-71
2021/11/05 05:08:16;;;;;;;17.83;11.73;;;8.80;99.90;;;;;;5018456;28;21102;-71
2021/11/05 05:10:47;;;;;;;16.93;12.10;;;8.90;99.90;;;;;;5022865;28;20778;-71
2021/11/05 05:13:15;;;;;;;15.50;10.40;;;8.90;99.90;;;;;;5020711;28;21204;-73
2021/11/05 05:15:43;;;;;;;15.97;11.63;;;8.90;99.90;;;;;;5023522;28;21245;-70
2021/11/05 05:18:16;;;;;;;18.27;12.50;;;8.90;99.90;;;;;;5019130;28;20654;-73
2021/11/05 05:20:46;;;;;;;21.83;12.60;;;8.90;99.90;;;;;;5022487;28;20642;-72
2021/11/05 05:23:12;;;;;;;19.63;12.63;;;8.90;99.90;;;;;;5025222;28;20641;-71
2021/11/05 05:25:39;;;;;;;16.97;11.73;;;8.80;99.90;;;;;;5018761;28;20620;-72
2021/11/05 05:28:05;;;;;;;17.30;11.67;;;8.80;99.90;;;;;;5021723;28;20618;-72
2021/11/05 05:30:31;;;;;;;19.10;11.63;;;8.80;99.90;;;;;;5020770;28;20638;-71
2021/11/05 05:33:00;;;;;;;18.20;11.80;;;8.80;99.90;;;;;;5023340;28;20643;-70
2021/11/05 05:35:26;;;;;;;18.20;11.17;;;8.80;99.90;;;;;;5026262;28;20603;-71
2021/11/05 05:37:54;;;;;;;18.47;10.90;;;8.70;99.90;;;;;;5023489;28;21013;-73
2021/11/05 05:40:23;;;;;;;16.60;11.87;;;8.70;99.90;;;;;;5023452;28;20671;-72
2021/11/05 05:42:49;;;;;;;18.60;11.57;;;8.70;99.90;;;;;;5024046;28;20647;-73
2021/11/05 05:45:17;;;;;;;16.90;10.50;;;8.70;99.90;;;;;;5017980;28;21031;-72
2021/11/05 05:47:45;;;;;;;16.93;11.30;;;8.70;99.90;;;;;;5020085;28;20192;-74
2021/11/05 05:50:13;;;;;;;14.50;10.67;;;8.70;99.90;;;;;;5014129;28;20615;-71
2021/11/05 05:52:39;;;;;;;16.63;11.80;;;8.60;99.90;;;;;;5015827;28;21260;-71
2021/11/05 05:55:10;;;;;;;16.23;11.40;;;8.60;99.90;;;;;;5019792;28;20631;-72
2021/11/05 05:57:39;;;;;;;15.20;10.33;;;8.60;99.90;;;;;;5021388;28;20222;-71
2021/11/05 06:00:06;;;;;;;15.80;10.67;;;8.50;99.90;;;;;;5015845;28;20861;-72
2021/11/05 06:02:35;;;;;;;19.03;10.97;;;8.50;99.90;;;;;;5016940;28;20611;-71
2021/11/05 06:05:00;;;;;;;13.40;10.47;;;8.60;99.90;;;;;;5023049;28;20729;-71
2021/11/05 06:07:29;;;;;;;15.60;10.50;;;8.60;99.90;;;;;;5017472;28;20703;-71
2021/11/05 06:09:57;;;;;;;15.93;10.90;;;8.50;99.90;;;;;;5016811;28;20205;-72
2021/11/05 06:12:22;;;;;;;15.80;11.17;;;8.50;99.90;;;;;;5021135;28;20989;-74
2021/11/05 06:14:51;;;;;;;15.87;10.50;;;8.50;99.90;;;;;;4992147;28;20619;-70
2021/11/05 06:17:19;;;;;;;14.57;10.53;;;8.50;99.90;;;;;;5019180;28;20872;-71
2021/11/05 06:19:45;;;;;;;14.50;11.10;;;8.50;99.90;;;;;;5019541;28;20647;-73
2021/11/05 06:22:11;;;;;;;15.57;10.77;;;8.50;99.90;;;;;;5018600;28;20651;-72
2021/11/05 06:24:39;;;;;;;14.07;10.33;;;8.50;99.90;;;;;;5023626;28;20208;-73
2021/11/05 06:27:12;;;;;;;14.67;10.90;;;8.50;99.90;;;;;;5019553;28;21040;-72
2021/11/05 06:29:43;;;;;;;17.53;11.80;;;8.50;99.90;;;;;;5017593;28;20694;-72
2021/11/05 06:32:09;;;;;;;13.00;10.10;;;8.50;99.90;;;;;;5018696;28;21401;-71
2021/11/05 06:34:35;;;;;;;15.37;9.87;;;8.50;99.90;;;;;;5018293;28;20647;-71
2021/11/05 06:37:08;;;;;;;16.13;11.10;;;8.50;99.90;;;;;;5018253;28;20188;-71
2021/11/05 06:39:36;;;;;;;14.20;10.00;;;8.50;99.90;;;;;;5005965;28;21266;-73
2021/11/05 06:42:04;;;;;;;13.70;10.40;;;8.40;99.90;;;;;;5024359;28;20731;-73
2021/11/05 06:44:30;;;;;;;15.40;10.10;;;8.40;99.90;;;;;;5023281;28;20643;-71
2021/11/05 06:46:57;;;;;;;13.97;9.63;;;8.40;99.90;;;;;;5023429;28;20619;-73
2021/11/05 06:49:23;;;;;;;18.07;9.83;;;8.40;99.90;;;;;;5023183;28;20207;-73
2021/11/05 06:51:53;;;;;;;17.20;11.40;;;8.40;99.90;;;;;;5021503;28;20636;-73
2021/11/05 06:54:19;;;;;;;13.40;9.50;;;8.40;99.90;;;;;;5020119;28;20290;-71
2021/11/05 06:56:45;;;;;;;15.03;10.30;;;8.40;99.90;;;;;;5023865;28;20622;-72
2021/11/05 06:59:11;;;;;;;15.63;10.37;;;8.40;99.90;;;;;;5024987;28;20651;-73
2021/11/05 07:01:41;;;;;;;14.50;10.10;;;8.40;99.90;;;;;;5023354;28;21397;-71
2021/11/05 07:04:07;;;;;;;12.43;9.27;;;8.40;99.90;;;;;;5026152;28;20724;-70
2021/11/05 07:06:45;;;;;;;14.67;10.40;;;8.40;99.90;;;;;;5027160;28;20619;-70
2021/11/05 07:09:15;;;;;;;14.80;10.10;;;8.40;99.90;;;;;;5028038;28;20173;-71
2021/11/05 07:11:45;;;;;;;14.63;9.60;;;8.40;99.90;;;;;;5029752;28;20686;-70
2021/11/05 07:14:11;;;;;;;16.07;10.47;;;8.40;99.90;;;;;;5010082;28;20651;-71
2021/11/05 07:16:37;;;;;;;15.73;9.20;;;8.40;99.90;;;;;;5029367;28;20619;-70
2021/11/05 07:19:04;;;;;;;14.63;10.00;;;8.40;99.90;;;;;;5030425;28;20647;-71
2021/11/05 07:21:30;;;;;;;15.57;10.20;;;8.40;99.90;;;;;;5028508;28;20631;-70
2021/11/05 07:24:02;;;;;;;16.80;10.77;;;8.40;99.90;;;;;;5030349;28;20643;-70
2021/11/05 07:26:46;;;;;;;14.67;9.97;;;8.40;99.90;;;;;;5030050;28;21155;-70
2021/11/05 07:29:19;;;;;;;14.90;9.97;;;8.40;99.90;;;;;;5029713;28;20583;-70
2021/11/05 07:31:45;;;;;;;14.70;10.27;;;8.40;99.90;;;;;;5028486;28;20734;-70
2021/11/05 07:34:11;;;;;;;14.50;8.83;;;8.40;99.90;;;;;;5029973;28;21127;-71
2021/11/05 07:36:38;;;;;;;12.97;9.40;;;8.40;99.90;;;;;;5028668;28;20192;-71
2021/11/05 07:39:09;;;;;;;18.73;10.53;;;8.50;99.90;;;;;;5029951;28;20663;-72
2021/11/05 07:41:35;;;;;;;15.60;10.03;;;8.50;99.90;;;;;;5027822;28;20997;-73
2021/11/05 07:44:01;;;;;;;15.70;10.60;;;8.60;99.90;;;;;;5029054;28;21026;-71
2021/11/05 07:46:36;;;;;;;16.97;9.90;;;8.60;99.90;;;;;;5028558;28;20603;-71
2021/11/05 07:49:01;;;;;;;14.03;10.23;;;8.70;99.90;;;;;;5028369;28;20265;-72
2021/11/05 07:51:28;;;;;;;15.40;10.30;;;8.80;99.90;;;;;;5029131;28;20989;-71
2021/11/05 07:53:56;;;;;;;15.50;10.60;;;8.80;99.90;;;;;;5029272;28;20605;-72
2021/11/05 07:56:22;;;;;;;15.17;11.00;;;8.90;99.90;;;;;;5025671;28;20725;-72
2021/11/05 07:58:47;;;;;;;13.90;10.10;;;9.00;99.90;;;;;;5026331;28;21289;-72
2021/11/05 08:01:15;;;;;;;13.33;10.10;;;9.00;99.90;;;;;;5026994;28;20217;-72
2021/11/05 08:03:46;;;;;;;12.40;9.67;;;9.10;99.90;;;;;;5028358;28;20239;-71
2021/11/05 08:06:21;;;;;;;13.20;9.20;;;9.10;99.90;;;;;;5029155;28;20575;-72
2021/11/05 08:08:47;;;;;;;12.67;9.93;;;9.20;99.90;;;;;;5029768;28;20606;-72
2021/11/05 08:11:15;;;;;;;12.27;9.40;;;9.30;99.90;;;;;;5026439;28;21004;-71
2021/11/05 08:13:41;;;;;;;11.47;8.87;;;9.30;99.90;;;;;;5027707;28;20531;-71
2021/11/05 08:16:17;;;;;;;15.90;9.50;;;9.40;99.90;;;;;;5028384;28;20841;-71
2021/11/05 08:18:45;;;;;;;12.07;8.30;;;9.50;99.90;;;;;;5029992;28;20638;-71
2021/11/05 08:21:11;;;;;;;11.10;8.03;;;9.50;99.90;;;;;;5026960;28;20674;-73
2021/11/05 08:23:37;;;;;;;8.97;7.47;;;9.60;99.90;;;;;;5029627;28;21198;-72
2021/11/05 08:26:02;;;;;;;9.73;7.40;;;9.60;99.90;;;;;;5027816;28;20543;-71
2021/11/05 08:28:31;;;;;;;12.87;7.20;;;9.70;99.90;;;;;;5029567;28;20268;-71
2021/11/05 08:30:59;;;;;;;9.30;6.53;;;9.70;99.90;;;;;;5026557;28;20277;-71
2021/11/05 08:33:27;;;;;;;8.53;6.60;;;9.80;99.90;;;;;;5028407;28;21222;-71
2021/11/05 08:35:53;;;;;;;7.77;6.40;;;9.80;99.90;;;;;;5028832;28;20618;-72
2021/11/05 08:38:24;;;;;;;7.87;6.10;;;9.90;99.90;;;;;;5028945;28;21208;-71
2021/11/05 08:40:52;;;;;;;7.90;5.87;;;10.00;99.90;;;;;;5025254;28;20645;-72
2021/11/05 08:43:31;;;;;;;8.50;6.20;;;10.00;99.90;;;;;;5028964;28;21225;-72
2021/11/05 08:46:06;;;;;;;8.60;5.80;;;10.10;99.90;;;;;;5026313;28;20602;-72
2021/11/05 08:48:33;;;;;;;8.20;6.63;;;10.10;99.90;;;;;;5018019;28;20707;-71
2021/11/05 08:51:09;;;;;;;9.17;5.43;;;10.20;99.90;;;;;;5028252;28;21021;-71
2021/11/05 08:53:37;;;;;;;10.53;5.33;;;10.20;99.90;;;;;;5019823;28;20631;-72
2021/11/05 08:56:05;;;;;;;6.77;5.03;;;10.30;99.90;;;;;;5022981;28;21273;-72
2021/11/05 08:58:34;;;;;;;7.37;4.40;;;10.40;99.90;;;;;;5028788;28;20720;-72
2021/11/05 09:01:00;;;;;;;6.27;4.87;;;10.40;99.90;;;;;;5027723;28;20634;-71
2021/11/05 09:03:26;;;;;;;5.13;4.33;;;10.40;99.90;;;;;;5028170;28;20643;-71
2021/11/05 09:05:52;;;;;;;5.70;4.00;;;10.40;99.90;;;;;;5026940;28;20239;-72
2021/11/05 09:08:17;;;;;;;4.53;4.10;;;10.40;99.90;;;;;;5029120;28;20177;-72
2021/11/05 09:10:43;;;;;;;5.33;4.27;;;10.50;99.90;;;;;;5025998;28;20220;-72
2021/11/05 09:13:11;;;;;;;5.70;4.60;;;10.60;99.90;;;;;;5029425;28;20211;-71
2021/11/05 09:15:49;;;;;;;7.90;4.10;;;10.60;99.90;;;;;;5027150;28;20188;-71
2021/11/05 09:18:15;;;;;;;6.50;4.20;;;10.70;99.90;;;;;;5028966;28;21181;-71
2021/11/05 09:20:40;;;;;;;9.50;4.43;;;10.70;99.90;;;;;;5027196;28;20714;-71
2021/11/05 09:23:07;;;;;;;4.97;4.10;;;10.80;99.90;;;;;;5028236;28;20196;-72
2021/11/05 09:25:33;;;;;;;5.90;3.63;;;10.80;99.90;;;;;;5026566;28;20184;-71
2021/11/05 09:27:58;;;;;;;5.13;3.67;;;10.80;99.90;;;;;;5028984;28;20623;-72
2021/11/05 09:30:28;;;;;;;5.00;3.40;;;10.80;99.90;;;;;;5026838;28;20594;-72
2021/11/05 09:32:56;;;;;;;4.30;3.90;;;10.90;99.90;;;;;;5028688;28;20230;-71
2021/11/05 09:35:26;;;;;;;5.83;4.10;;;10.90;99.90;;;;;;5027218;28;20669;-71
2021/11/05 09:37:53;;;;;;;7.83;4.13;;;11.00;99.90;;;;;;5029244;28;20964;-71
2021/11/05 09:40:31;;;;;;;5.10;3.40;;;11.10;99.90;;;;;;5024725;28;21132;-70
2021/11/05 09:42:58;;;;;;;5.20;2.90;;;11.20;99.90;;;;;;5028509;28;21349;-70
2021/11/05 09:45:31;;;;;;;5.03;3.77;;;11.20;99.90;;;;;;5028524;28;20658;-71
2021/11/05 09:47:58;;;;;;;5.93;3.47;;;11.30;99.90;;;;;;5029045;28;20684;-71
2021/11/05 09:50:23;;;;;;;4.83;3.30;;;11.40;99.90;;;;;;5025319;28;20677;-72
2021/11/05 09:52:50;;;;;;;6.87;3.30;;;11.50;99.90;;;;;;5028588;28;20635;-71
2021/11/05 09:55:20;;;;;;;4.67;2.73;;;11.60;99.90;;;;;;5026812;28;20217;-71
2021/11/05 09:57:46;;;;;;;6.70;3.30;;;11.70;99.90;;;;;;5026086;28;20611;-71
2021/11/05 10:00:17;;;;;;;5.83;3.30;;;11.80;99.90;;;;;;5027942;28;20666;-71
2021/11/05 10:02:52;;;;;;;3.47;2.73;;;11.90;99.90;;;;;;5027889;28;21060;-71
2021/11/05 10:05:21;;;;;;;4.53;2.60;;;12.10;99.90;;;;;;5027639;28;20603;-71
2021/11/05 10:07:49;;;;;;;3.80;2.70;;;12.20;99.90;;;;;;5026639;28;20690;-73
2021/11/05 10:10:22;;;;;;;4.83;2.83;;;12.20;99.90;;;;;;5025129;28;20631;-70
2021/11/05 10:13:12;;;;;;;4.27;2.60;;;12.20;99.90;;;;;;5026676;28;20619;-72
2021/11/05 10:15:50;;;;;;;4.23;2.53;;;12.20;99.90;;;;;;5026507;28;20619;-72
2021/11/05 10:18:23;;;;;;;2.73;2.30;;;12.60;99.90;;;;;;5026820;28;20941;-71
2021/11/05 10:21:06;;;;;;;3.20;2.17;;;12.40;99.90;;;;;;5026929;28;20642;-71
2021/11/05 10:23:36;;;;;;;6.80;2.57;;;12.40;99.90;;;;;;5026623;28;20639;-71
2021/11/05 10:26:04;;;;;;;6.17;2.40;;;12.50;99.90;;;;;;5026717;28;20611;-71
2021/11/05 10:28:39;;;;;;;4.53;2.30;;;12.50;99.90;;;;;;5026376;28;20709;-72
2021/11/05 10:31:10;;;;;;;2.90;2.43;;;12.50;99.90;;;;;;5026277;28;20624;-72
2021/11/05 10:33:52;;;;;;;2.90;1.73;;;12.60;99.90;;;;;;5026415;28;21204;-70
2021/11/05 10:36:22;;;;;;;3.50;2.10;;;12.60;99.90;;;;;;5028003;28;20575;-71
2021/11/05 10:39:04;;;;;;;1.70;1.60;;;12.60;99.90;;;;;;5027607;28;21494;-70
2021/11/05 10:41:34;;;;;;;4.47;2.20;;;12.60;99.90;;;;;;5022144;28;20683;-69
2021/11/05 10:44:11;;;;;;;2.37;1.80;;;12.60;99.90;;;;;;5030012;28;21186;-70
2021/11/05 10:46:39;;;;;;;3.67;2.00;;;12.60;99.90;;;;;;5031622;28;20623;-70
2021/11/05 10:49:24;;;;;;;6.10;1.80;;;12.60;99.90;;;;;;5014631;28;20607;-71
2021/11/05 10:52:18;;;;;;;2.47;1.43;;;12.70;99.90;;;;;;5030747;28;20635;-70
2021/11/05 10:54:58;;;;;;;2.60;1.10;;;12.70;99.90;;;;;;5030515;28;21073;-70
2021/11/05 10:57:40;;;;;;;3.53;1.30;;;12.70;99.90;;;;;;5031147;28;20630;-71
2021/11/05 11:00:31;;;;;;;2.30;1.10;;;12.80;99.90;;;;;;5031256;28;21011;-70
2021/11/05 11:03:08;;;;;;;3.37;1.20;;;12.80;99.90;;;;;;5032624;28;20629;-70
2021/11/05 11:05:42;;;;;;;3.33;1.20;;;12.90;99.90;;;;;;5032488;28;21095;-70
2021/11/05 11:08:28;;;;;;;2.50;1.23;;;12.90;99.90;;;;;;5030339;28;20623;-71
2021/11/05 11:10:57;;;;;;;4.83;3.20;;;13.10;99.90;;;;;;5028689;28;20642;-70
2021/11/05 11:13:44;;;;;;;2.30;0.90;;;13.10;99.90;;;;;;5029101;28;21160;-70
2021/11/05 11:16:18;;;;;;;2.57;1.23;;;13.20;99.90;;;;;;5030057;28;20607;-71
2021/11/05 11:18:57;;;;;;;3.17;1.17;;;13.20;99.90;;;;;;5032095;28;20626;-74
2021/11/05 11:21:29;;;;;;;1.80;0.80;;;13.20;99.90;;;;;;5030097;28;20722;-71
2021/11/05 11:23:56;;;;;;;4.17;1.10;;;13.20;99.90;;;;;;5030627;28;21024;-72
2021/11/05 11:26:24;;;;;;;2.50;1.00;;;13.20;99.90;;;;;;5029470;28;20945;-70
2021/11/05 11:28:50;;;;;;;5.07;1.07;;;13.20;99.90;;;;;;5031886;28;20617;-71
2021/11/05 11:31:17;;;;;;;1.90;0.80;;;13.20;99.90;;;;;;5030131;28;21244;-71
2021/11/05 11:33:49;;;;;;;1.83;1.00;;;13.20;99.90;;;;;;5030620;28;21224;-70
2021/11/05 11:36:18;;;;;;;3.97;1.10;;;13.20;99.90;;;;;;5031355;28;20659;-70
2021/11/05 11:38:47;;;;;;;2.50;1.10;;;13.20;99.90;;;;;;5031696;28;20643;-70
2021/11/05 11:41:13;;;;;;;1.27;0.97;;;13.30;99.90;;;;;;5028292;28;20624;-71
2021/11/05 11:43:42;;;;;;;2.10;0.80;;;13.30;99.90;;;;;;5024840;28;20650;-71
2021/11/05 11:46:07;;;;;;;3.77;1.30;;;13.40;99.90;;;;;;5028354;28;20645;-71
2021/11/05 11:48:42;;;;;;;0.93;0.67;;;13.70;99.90;;;;;;5011389;28;20615;-71
2021/11/05 11:51:25;;;;;;;1.30;0.90;;;14.20;99.90;;;;;;5028365;28;20220;-71
2021/11/05 11:54:21;;;;;;;1.70;1.07;;;14.50;99.90;;;;;;5023430;28;20988;-71
2021/11/05 11:56:47;;;;;;;1.33;0.70;;;14.70;99.90;;;;;;5013542;28;20623;-71
2021/11/05 11:59:16;;;;;;;2.77;1.00;;;14.50;99.90;;;;;;5025624;28;20670;-71
2021/11/05 12:01:44;;;;;;;3.33;1.10;;;14.50;99.90;;;;;;5027190;28;20225;-71
2021/11/05 12:04:11;;;;;;;2.00;1.03;;;14.30;99.90;;;;;;5027825;28;21027;-71
2021/11/05 12:07:04;;;;;;;1.47;0.80;;;14.40;99.90;;;;;;5028069;28;20695;-73
2021/11/05 12:09:39;;;;;;;1.93;0.90;;;14.50;99.90;;;;;;5027542;28;20623;-71
2021/11/05 12:12:23;;;;;;;7.40;1.57;;;14.60;99.90;;;;;;5025928;28;20721;-71
2021/11/05 12:14:58;;;;;;;3.63;0.90;;;14.50;99.90;;;;;;5027390;28;20643;-70
2021/11/05 12:17:28;;;;;;;1.80;0.83;;;14.50;99.90;;;;;;5025384;28;21198;-71
2021/11/05 12:20:01;;;;;;;2.30;1.03;;;14.30;99.90;;;;;;5020122;28;20654;-71
2021/11/05 12:22:32;;;;;;;4.10;1.00;;;14.10;99.90;;;;;;5025343;28;20617;-71
2021/11/05 12:25:20;;;;;;;1.10;0.80;;;14.00;99.90;;;;;;5026390;28;20614;-71
2021/11/05 12:28:16;;;;;;;1.37;0.90;;;13.90;99.90;;;;;;5024797;28;20596;-73
2021/11/05 12:30:49;;;;;;;2.20;0.80;;;13.80;99.90;;;;;;5025251;28;20661;-71
2021/11/05 12:33:34;;;;;;;1.63;0.60;;;13.70;99.90;;;;;;5024428;28;20735;-71
2021/11/05 12:36:09;;;;;;;2.20;0.67;;;13.50;99.90;;;;;;5024255;28;20690;-70
2021/11/05 12:38:59;;;;;;;0.90;0.80;;;13.30;99.90;;;;;;5025540;28;20622;-71
2021/11/05 12:41:25;;;;;;;3.63;0.80;;;13.30;99.90;;;;;;5024847;28;20734;-72
2021/11/05 12:43:51;;;;;;;1.20;0.70;;;13.20;99.90;;;;;;5023962;28;20718;-71
2021/11/05 12:46:20;;;;;;;1.33;0.70;;;13.30;99.90;;;;;;5026014;28;20637;-70
2021/11/05 12:48:50;;;;;;;0.93;0.60;;;14.00;99.90;;;;;;5028292;28;20200;-72
2021/11/05 12:51:40;;;;;;;1.17;0.60;;;15.80;99.90;;;;;;5027776;28;20653;-70
2021/11/05 12:54:14;;;;;;;2.50;0.80;;;18.40;99.90;;;;;;5026144;28;20717;-70